Aérodrome :
LOGIN :

S'inscrire | Disclaimer

   EN    FR    IT 

 










Légende :    VFR   VFR Marginal   IFR   IFR Intensif   IFR Très Intensif
Visi : 
Plafond : 
>= 8 km
>= 3000ft
5 à 8 km
1000 à 3000 ft
1500m à 5 km
500 à 1000 ft
800 à 1500m
200 à 500 ft
< 800m
< 200 ft
Symboles :   Orages  Brouillard  Fortes neiges  Fortes précipitations  Vent > 20 kt
SIGMETs :   Divers  Orages  Givrage  Turbulence  Onde Orograph.  Cendres Volcan.






- Altitude de l'aérodrome : 584 ft


EPRA - Radom

DERNIER METAR :
  • 020630Z 13011KT 6000 FEW008 06/05 Q1012

METARs EXPIRÉS :
  • 020600Z 13010KT 6000 SCT009 06/05 Q1012
  • 020530Z 13010KT 6000 FEW008 06/05 Q1012
  • 020500Z 13011KT 6000 NSC 06/05 Q1011
  • 020430Z 13009KT 6000 NSC 06/05 Q1011
  • 012100Z 13010KT CAVOK 07/05 Q1013
  • 020400Z 12009KT 6000 NSC 06/05 Q1011
  • 020330Z 12008KT 6000 NSC 06/05 Q1012
  • 020300Z 12007KT 6000 NSC 05/05 Q1012
  • 020230Z 13007KT 7000 NSC 05/05 Q1012
  • 020200Z 12008KT 8000 NSC 06/05 Q1012
  • 020130Z 13008KT 9000 NSC 06/05 Q1012

TAF TAF EPRA
Valide du 02 à 06h jusqu'au 02 à 15h UTC


020530Z 0206/0215 13010KT 7000 BKN010
PROB40
TEMPO 0206/0209 4000 BR BKN007
BECMG 0210/0212 BKN020



MET'MAP, la Météo Aéronautique d'un coup d'oeil ! - Copyright ORBIFLY Décembre 2007 - Disclaimer

ORBIFLY MET'MAP TEAM :

Programmation & Développement : Alexandra Zaïnal
Sur une idée originale de : Baudouin d'Aumeries
Soutien technique & logistique : Manuel Goepfert
Assistance : Marc-Olivier Méhu




SOURCES & CREDITS :

   NOAA